sensor_id;sensor_type;location;lat;lon;timestamp;P1;durP1;ratioP1;P2;durP2;ratioP2
18090;SDS011;9172;49.948;9.208;2023-09-30T00:00:06;5.47;;;2.60;;
18090;SDS011;9172;49.948;9.208;2023-09-30T00:02:35;7.67;;;2.90;;
18090;SDS011;9172;49.948;9.208;2023-09-30T00:05:05;6.43;;;2.33;;
18090;SDS011;9172;49.948;9.208;2023-09-30T00:07:35;9.17;;;3.47;;
18090;SDS011;9172;49.948;9.208;2023-09-30T00:10:04;5.67;;;2.87;;
18090;SDS011;9172;49.948;9.208;2023-09-30T00:12:34;8.57;;;2.93;;
18090;SDS011;9172;49.948;9.208;2023-09-30T00:15:03;12.40;;;3.40;;
18090;SDS011;9172;49.948;9.208;2023-09-30T00:17:33;11.87;;;3.30;;
18090;SDS011;9172;49.948;9.208;2023-09-30T00:20:01;7.27;;;2.80;;
18090;SDS011;9172;49.948;9.208;2023-09-30T00:22:30;6.80;;;2.80;;
18090;SDS011;9172;49.948;9.208;2023-09-30T00:24:59;9.70;;;3.10;;
18090;SDS011;9172;49.948;9.208;2023-09-30T00:27:27;11.63;;;3.10;;
18090;SDS011;9172;49.948;9.208;2023-09-30T00:29:56;4.63;;;2.63;;
18090;SDS011;9172;49.948;9.208;2023-09-30T00:32:25;8.63;;;2.80;;
18090;SDS011;9172;49.948;9.208;2023-09-30T00:34:53;11.20;;;2.87;;
18090;SDS011;9172;49.948;9.208;2023-09-30T00:37:22;5.87;;;2.73;;
18090;SDS011;9172;49.948;9.208;2023-09-30T00:39:50;8.07;;;2.93;;
18090;SDS011;9172;49.948;9.208;2023-09-30T00:42:19;9.50;;;2.77;;
18090;SDS011;9172;49.948;9.208;2023-09-30T00:44:47;12.00;;;5.17;;
18090;SDS011;9172;49.948;9.208;2023-09-30T00:47:16;10.27;;;2.70;;
18090;SDS011;9172;49.948;9.208;2023-09-30T00:49:46;8.30;;;3.53;;
18090;SDS011;9172;49.948;9.208;2023-09-30T00:52:16;8.07;;;3.60;;
18090;SDS011;9172;49.948;9.208;2023-09-30T00:54:45;5.30;;;3.13;;
18090;SDS011;9172;49.948;9.208;2023-09-30T00:57:14;7.53;;;3.30;;
18090;SDS011;9172;49.948;9.208;2023-09-30T00:59:44;5.27;;;3.33;;
18090;SDS011;9172;49.948;9.208;2023-09-30T01:02:14;8.53;;;4.17;;
18090;SDS011;9172;49.948;9.208;2023-09-30T01:04:42;7.77;;;4.47;;
18090;SDS011;9172;49.948;9.208;2023-09-30T01:07:11;10.97;;;3.80;;
18090;SDS011;9172;49.948;9.208;2023-09-30T01:09:40;8.87;;;3.80;;
18090;SDS011;9172;49.948;9.208;2023-09-30T01:12:09;9.00;;;3.07;;
18090;SDS011;9172;49.948;9.208;2023-09-30T01:14:37;8.50;;;3.23;;
18090;SDS011;9172;49.948;9.208;2023-09-30T01:17:07;8.57;;;3.40;;
18090;SDS011;9172;49.948;9.208;2023-09-30T01:19:37;9.43;;;3.07;;
18090;SDS011;9172;49.948;9.208;2023-09-30T01:22:06;6.30;;;3.40;;
18090;SDS011;9172;49.948;9.208;2023-09-30T01:24:38;6.57;;;3.67;;
18090;SDS011;9172;49.948;9.208;2023-09-30T01:27:08;8.17;;;3.20;;
18090;SDS011;9172;49.948;9.208;2023-09-30T01:29:36;8.83;;;3.33;;
18090;SDS011;9172;49.948;9.208;2023-09-30T01:32:05;9.97;;;3.17;;
18090;SDS011;9172;49.948;9.208;2023-09-30T01:34:35;8.70;;;3.40;;
18090;SDS011;9172;49.948;9.208;2023-09-30T01:37:04;6.67;;;3.07;;
18090;SDS011;9172;49.948;9.208;2023-09-30T01:39:33;9.70;;;4.30;;
18090;SDS011;9172;49.948;9.208;2023-09-30T01:42:01;11.83;;;4.93;;
18090;SDS011;9172;49.948;9.208;2023-09-30T01:44:30;8.57;;;4.00;;
18090;SDS011;9172;49.948;9.208;2023-09-30T01:46:59;15.90;;;4.47;;
18090;SDS011;9172;49.948;9.208;2023-09-30T01:49:28;15.50;;;5.20;;
18090;SDS011;9172;49.948;9.208;2023-09-30T01:51:56;10.37;;;4.27;;
18090;SDS011;9172;49.948;9.208;2023-09-30T01:54:25;9.30;;;4.50;;
18090;SDS011;9172;49.948;9.208;2023-09-30T01:56:53;8.00;;;3.97;;
18090;SDS011;9172;49.948;9.208;2023-09-30T01:59:22;11.60;;;4.80;;
18090;SDS011;9172;49.948;9.208;2023-09-30T02:01:51;11.87;;;4.53;;
18090;SDS011;9172;49.948;9.208;2023-09-30T02:04:19;11.43;;;4.50;;
18090;SDS011;9172;49.948;9.208;2023-09-30T02:06:48;10.40;;;3.40;;
18090;SDS011;9172;49.948;9.208;2023-09-30T02:09:16;6.73;;;3.70;;
18090;SDS011;9172;49.948;9.208;2023-09-30T02:11:45;5.87;;;3.40;;
18090;SDS011;9172;49.948;9.208;2023-09-30T02:14:14;8.00;;;3.57;;
18090;SDS011;9172;49.948;9.208;2023-09-30T02:16:43;5.10;;;2.97;;
18090;SDS011;9172;49.948;9.208;2023-09-30T02:19:12;5.90;;;3.33;;
18090;SDS011;9172;49.948;9.208;2023-09-30T02:21:40;8.37;;;3.67;;
18090;SDS011;9172;49.948;9.208;2023-09-30T02:24:10;10.10;;;3.87;;
18090;SDS011;9172;49.948;9.208;2023-09-30T02:26:39;6.90;;;4.00;;
18090;SDS011;9172;49.948;9.208;2023-09-30T02:29:07;6.23;;;3.63;;
18090;SDS011;9172;49.948;9.208;2023-09-30T02:31:36;8.00;;;4.07;;
18090;SDS011;9172;49.948;9.208;2023-09-30T02:34:04;11.07;;;4.73;;
18090;SDS011;9172;49.948;9.208;2023-09-30T02:36:33;8.47;;;3.73;;
18090;SDS011;9172;49.948;9.208;2023-09-30T02:39:04;8.13;;;3.83;;
18090;SDS011;9172;49.948;9.208;2023-09-30T02:41:34;12.13;;;4.00;;
18090;SDS011;9172;49.948;9.208;2023-09-30T02:44:03;9.77;;;4.57;;
18090;SDS011;9172;49.948;9.208;2023-09-30T02:46:32;13.40;;;5.23;;
18090;SDS011;9172;49.948;9.208;2023-09-30T02:49:01;12.80;;;5.27;;
18090;SDS011;9172;49.948;9.208;2023-09-30T02:51:29;12.37;;;4.47;;
18090;SDS011;9172;49.948;9.208;2023-09-30T02:53:58;12.93;;;4.53;;
18090;SDS011;9172;49.948;9.208;2023-09-30T02:56:26;10.60;;;4.77;;
18090;SDS011;9172;49.948;9.208;2023-09-30T02:58:56;10.07;;;4.87;;
18090;SDS011;9172;49.948;9.208;2023-09-30T03:01:25;8.60;;;3.70;;
18090;SDS011;9172;49.948;9.208;2023-09-30T03:03:54;8.47;;;3.77;;
18090;SDS011;9172;49.948;9.208;2023-09-30T03:06:23;7.07;;;3.43;;
18090;SDS011;9172;49.948;9.208;2023-09-30T03:08:51;7.90;;;4.07;;
18090;SDS011;9172;49.948;9.208;2023-09-30T03:11:20;10.83;;;4.70;;
18090;SDS011;9172;49.948;9.208;2023-09-30T03:13:48;14.00;;;4.90;;
18090;SDS011;9172;49.948;9.208;2023-09-30T03:16:17;11.27;;;4.33;;
18090;SDS011;9172;49.948;9.208;2023-09-30T03:18:46;8.53;;;4.63;;
18090;SDS011;9172;49.948;9.208;2023-09-30T03:21:15;10.00;;;4.80;;
18090;SDS011;9172;49.948;9.208;2023-09-30T03:23:44;8.63;;;4.23;;
18090;SDS011;9172;49.948;9.208;2023-09-30T03:26:12;7.47;;;4.00;;
18090;SDS011;9172;49.948;9.208;2023-09-30T03:28:42;9.23;;;3.97;;
18090;SDS011;9172;49.948;9.208;2023-09-30T03:31:10;6.63;;;3.73;;
18090;SDS011;9172;49.948;9.208;2023-09-30T03:33:39;8.67;;;4.60;;
18090;SDS011;9172;49.948;9.208;2023-09-30T03:36:08;6.13;;;3.33;;
18090;SDS011;9172;49.948;9.208;2023-09-30T03:38:37;9.20;;;3.67;;
18090;SDS011;9172;49.948;9.208;2023-09-30T03:41:06;7.37;;;3.97;;
18090;SDS011;9172;49.948;9.208;2023-09-30T03:43:34;13.37;;;4.13;;
18090;SDS011;9172;49.948;9.208;2023-09-30T03:46:05;14.67;;;4.80;;
18090;SDS011;9172;49.948;9.208;2023-09-30T03:48:33;7.77;;;4.13;;
18090;SDS011;9172;49.948;9.208;2023-09-30T03:51:08;9.73;;;4.27;;
18090;SDS011;9172;49.948;9.208;2023-09-30T03:53:38;9.30;;;5.07;;
18090;SDS011;9172;49.948;9.208;2023-09-30T03:56:07;11.87;;;5.47;;
18090;SDS011;9172;49.948;9.208;2023-09-30T03:58:38;13.83;;;4.43;;
18090;SDS011;9172;49.948;9.208;2023-09-30T04:01:07;14.60;;;5.60;;
18090;SDS011;9172;49.948;9.208;2023-09-30T04:03:37;9.77;;;4.70;;
18090;SDS011;9172;49.948;9.208;2023-09-30T04:06:06;8.70;;;4.57;;
18090;SDS011;9172;49.948;9.208;2023-09-30T04:08:34;12.43;;;5.07;;
18090;SDS011;9172;49.948;9.208;2023-09-30T04:11:03;12.00;;;5.50;;
18090;SDS011;9172;49.948;9.208;2023-09-30T04:13:32;12.67;;;5.13;;
18090;SDS011;9172;49.948;9.208;2023-09-30T04:16:01;12.30;;;5.00;;
18090;SDS011;9172;49.948;9.208;2023-09-30T04:18:29;9.87;;;4.97;;
18090;SDS011;9172;49.948;9.208;2023-09-30T04:20:58;10.93;;;5.43;;
18090;SDS011;9172;49.948;9.208;2023-09-30T04:23:28;10.07;;;5.30;;
18090;SDS011;9172;49.948;9.208;2023-09-30T04:25:56;17.00;;;5.33;;
18090;SDS011;9172;49.948;9.208;2023-09-30T04:28:25;13.63;;;4.50;;
18090;SDS011;9172;49.948;9.208;2023-09-30T04:30:54;8.83;;;4.27;;
18090;SDS011;9172;49.948;9.208;2023-09-30T04:33:24;11.13;;;4.40;;
18090;SDS011;9172;49.948;9.208;2023-09-30T04:35:52;7.70;;;4.03;;
18090;SDS011;9172;49.948;9.208;2023-09-30T04:38:21;6.57;;;3.27;;
18090;SDS011;9172;49.948;9.208;2023-09-30T04:43:26;12.50;;;4.83;;
18090;SDS011;9172;49.948;9.208;2023-09-30T04:45:55;10.10;;;4.70;;
18090;SDS011;9172;49.948;9.208;2023-09-30T04:51:00;9.00;;;4.07;;
18090;SDS011;9172;49.948;9.208;2023-09-30T04:53:31;11.17;;;4.60;;
18090;SDS011;9172;49.948;9.208;2023-09-30T04:56:00;9.83;;;4.87;;
18090;SDS011;9172;49.948;9.208;2023-09-30T04:58:29;11.03;;;4.40;;
18090;SDS011;9172;49.948;9.208;2023-09-30T05:00:58;8.83;;;4.63;;
18090;SDS011;9172;49.948;9.208;2023-09-30T05:03:26;8.37;;;4.87;;
18090;SDS011;9172;49.948;9.208;2023-09-30T05:05:55;11.33;;;4.93;;
18090;SDS011;9172;49.948;9.208;2023-09-30T05:08:24;9.93;;;4.17;;
18090;SDS011;9172;49.948;9.208;2023-09-30T05:10:55;7.47;;;4.00;;
18090;SDS011;9172;49.948;9.208;2023-09-30T05:13:23;8.00;;;4.20;;
18090;SDS011;9172;49.948;9.208;2023-09-30T05:15:52;8.83;;;4.37;;
18090;SDS011;9172;49.948;9.208;2023-09-30T05:18:21;7.10;;;4.13;;
18090;SDS011;9172;49.948;9.208;2023-09-30T05:20:50;7.93;;;4.50;;
18090;SDS011;9172;49.948;9.208;2023-09-30T05:23:18;11.57;;;3.93;;
18090;SDS011;9172;49.948;9.208;2023-09-30T05:25:47;8.10;;;4.30;;
18090;SDS011;9172;49.948;9.208;2023-09-30T05:28:15;18.87;;;5.57;;
18090;SDS011;9172;49.948;9.208;2023-09-30T05:30:44;7.47;;;4.37;;
18090;SDS011;9172;49.948;9.208;2023-09-30T05:33:13;10.07;;;4.53;;
18090;SDS011;9172;49.948;9.208;2023-09-30T05:35:43;9.93;;;4.70;;
18090;SDS011;9172;49.948;9.208;2023-09-30T05:38:11;11.33;;;4.67;;
18090;SDS011;9172;49.948;9.208;2023-09-30T05:40:40;6.50;;;4.43;;
18090;SDS011;9172;49.948;9.208;2023-09-30T05:43:09;8.67;;;5.10;;
18090;SDS011;9172;49.948;9.208;2023-09-30T05:45:40;9.43;;;4.43;;
18090;SDS011;9172;49.948;9.208;2023-09-30T05:48:12;10.40;;;4.30;;
18090;SDS011;9172;49.948;9.208;2023-09-30T05:50:40;12.17;;;4.87;;
18090;SDS011;9172;49.948;9.208;2023-09-30T05:53:10;10.93;;;5.10;;
18090;SDS011;9172;49.948;9.208;2023-09-30T05:55:39;10.00;;;4.73;;
18090;SDS011;9172;49.948;9.208;2023-09-30T05:58:09;11.47;;;5.20;;
18090;SDS011;9172;49.948;9.208;2023-09-30T06:00:39;8.63;;;4.80;;
18090;SDS011;9172;49.948;9.208;2023-09-30T06:03:09;8.87;;;4.67;;
18090;SDS011;9172;49.948;9.208;2023-09-30T06:05:39;10.60;;;4.40;;
18090;SDS011;9172;49.948;9.208;2023-09-30T06:08:08;9.07;;;4.50;;
18090;SDS011;9172;49.948;9.208;2023-09-30T06:10:40;8.67;;;4.00;;
18090;SDS011;9172;49.948;9.208;2023-09-30T06:13:09;8.00;;;4.10;;
18090;SDS011;9172;49.948;9.208;2023-09-30T06:15:38;7.30;;;4.20;;
18090;SDS011;9172;49.948;9.208;2023-09-30T06:18:08;6.60;;;3.80;;
18090;SDS011;9172;49.948;9.208;2023-09-30T06:20:38;8.73;;;3.97;;
18090;SDS011;9172;49.948;9.208;2023-09-30T06:23:07;6.47;;;3.57;;
18090;SDS011;9172;49.948;9.208;2023-09-30T06:25:36;7.93;;;3.83;;
18090;SDS011;9172;49.948;9.208;2023-09-30T06:28:06;10.03;;;4.73;;
18090;SDS011;9172;49.948;9.208;2023-09-30T06:30:34;9.93;;;4.83;;
18090;SDS011;9172;49.948;9.208;2023-09-30T06:33:03;6.43;;;3.87;;
18090;SDS011;9172;49.948;9.208;2023-09-30T06:35:34;16.93;;;4.80;;
18090;SDS011;9172;49.948;9.208;2023-09-30T06:38:05;7.23;;;3.97;;
18090;SDS011;9172;49.948;9.208;2023-09-30T06:40:34;7.97;;;4.03;;
18090;SDS011;9172;49.948;9.208;2023-09-30T06:43:04;8.63;;;4.37;;
18090;SDS011;9172;49.948;9.208;2023-09-30T06:45:32;8.90;;;4.53;;
18090;SDS011;9172;49.948;9.208;2023-09-30T06:48:03;7.77;;;3.53;;
18090;SDS011;9172;49.948;9.208;2023-09-30T06:50:32;8.00;;;3.80;;
18090;SDS011;9172;49.948;9.208;2023-09-30T06:53:00;11.87;;;5.00;;
18090;SDS011;9172;49.948;9.208;2023-09-30T06:55:29;8.73;;;4.03;;
18090;SDS011;9172;49.948;9.208;2023-09-30T06:57:58;9.33;;;3.73;;
18090;SDS011;9172;49.948;9.208;2023-09-30T07:00:27;8.40;;;3.63;;
18090;SDS011;9172;49.948;9.208;2023-09-30T07:02:56;11.20;;;3.83;;
18090;SDS011;9172;49.948;9.208;2023-09-30T07:05:26;7.87;;;4.60;;
18090;SDS011;9172;49.948;9.208;2023-09-30T07:07:55;9.20;;;4.40;;
18090;SDS011;9172;49.948;9.208;2023-09-30T07:10:24;7.73;;;3.67;;
18090;SDS011;9172;49.948;9.208;2023-09-30T07:12:55;10.60;;;3.57;;
18090;SDS011;9172;49.948;9.208;2023-09-30T07:15:24;14.43;;;6.43;;
18090;SDS011;9172;49.948;9.208;2023-09-30T07:17:52;9.27;;;5.40;;
18090;SDS011;9172;49.948;9.208;2023-09-30T07:20:21;14.23;;;5.40;;
18090;SDS011;9172;49.948;9.208;2023-09-30T07:22:50;10.93;;;4.93;;
18090;SDS011;9172;49.948;9.208;2023-09-30T07:25:19;7.37;;;4.33;;
18090;SDS011;9172;49.948;9.208;2023-09-30T07:27:47;9.33;;;5.53;;
18090;SDS011;9172;49.948;9.208;2023-09-30T07:30:16;12.33;;;4.87;;
18090;SDS011;9172;49.948;9.208;2023-09-30T07:32:45;15.53;;;4.37;;
18090;SDS011;9172;49.948;9.208;2023-09-30T07:35:14;10.13;;;4.30;;
18090;SDS011;9172;49.948;9.208;2023-09-30T07:37:43;14.00;;;5.47;;
18090;SDS011;9172;49.948;9.208;2023-09-30T07:40:12;10.50;;;4.67;;
18090;SDS011;9172;49.948;9.208;2023-09-30T07:42:41;12.83;;;5.50;;
18090;SDS011;9172;49.948;9.208;2023-09-30T07:45:10;8.53;;;4.43;;
18090;SDS011;9172;49.948;9.208;2023-09-30T07:47:40;9.67;;;4.60;;
18090;SDS011;9172;49.948;9.208;2023-09-30T07:50:10;10.67;;;5.47;;
18090;SDS011;9172;49.948;9.208;2023-09-30T07:52:38;9.90;;;4.53;;
18090;SDS011;9172;49.948;9.208;2023-09-30T07:55:08;10.70;;;4.47;;
18090;SDS011;9172;49.948;9.208;2023-09-30T07:57:38;8.67;;;4.63;;
18090;SDS011;9172;49.948;9.208;2023-09-30T08:00:08;9.27;;;4.57;;
18090;SDS011;9172;49.948;9.208;2023-09-30T08:02:40;10.60;;;4.87;;
18090;SDS011;9172;49.948;9.208;2023-09-30T08:05:09;10.07;;;5.23;;
18090;SDS011;9172;49.948;9.208;2023-09-30T08:07:38;8.63;;;4.43;;
18090;SDS011;9172;49.948;9.208;2023-09-30T08:10:08;10.20;;;4.87;;
18090;SDS011;9172;49.948;9.208;2023-09-30T08:12:39;20.57;;;4.93;;
18090;SDS011;9172;49.948;9.208;2023-09-30T08:15:09;17.43;;;5.50;;
18090;SDS011;9172;49.948;9.208;2023-09-30T08:17:38;9.90;;;4.47;;
18090;SDS011;9172;49.948;9.208;2023-09-30T08:20:08;11.97;;;5.20;;
18090;SDS011;9172;49.948;9.208;2023-09-30T08:22:37;13.97;;;5.07;;
18090;SDS011;9172;49.948;9.208;2023-09-30T08:25:08;10.40;;;4.33;;
18090;SDS011;9172;49.948;9.208;2023-09-30T08:27:37;10.60;;;5.10;;
18090;SDS011;9172;49.948;9.208;2023-09-30T08:30:07;12.57;;;4.47;;
18090;SDS011;9172;49.948;9.208;2023-09-30T08:32:36;12.53;;;4.83;;
18090;SDS011;9172;49.948;9.208;2023-09-30T08:35:05;20.83;;;6.07;;
18090;SDS011;9172;49.948;9.208;2023-09-30T08:37:35;25.27;;;5.53;;
18090;SDS011;9172;49.948;9.208;2023-09-30T08:40:08;16.13;;;5.10;;
18090;SDS011;9172;49.948;9.208;2023-09-30T08:42:37;12.37;;;4.73;;
18090;SDS011;9172;49.948;9.208;2023-09-30T08:45:08;12.53;;;4.90;;
18090;SDS011;9172;49.948;9.208;2023-09-30T08:47:41;13.87;;;5.90;;
18090;SDS011;9172;49.948;9.208;2023-09-30T08:50:09;17.70;;;5.97;;
18090;SDS011;9172;49.948;9.208;2023-09-30T08:52:38;19.07;;;5.27;;
18090;SDS011;9172;49.948;9.208;2023-09-30T08:55:09;18.07;;;6.77;;
18090;SDS011;9172;49.948;9.208;2023-09-30T08:57:39;9.67;;;4.70;;
18090;SDS011;9172;49.948;9.208;2023-09-30T09:00:09;11.17;;;4.93;;
18090;SDS011;9172;49.948;9.208;2023-09-30T09:02:40;9.50;;;3.77;;
18090;SDS011;9172;49.948;9.208;2023-09-30T09:05:09;12.03;;;4.77;;
18090;SDS011;9172;49.948;9.208;2023-09-30T09:07:38;9.40;;;4.67;;
18090;SDS011;9172;49.948;9.208;2023-09-30T09:10:09;15.20;;;5.77;;
18090;SDS011;9172;49.948;9.208;2023-09-30T09:12:39;8.27;;;4.20;;
18090;SDS011;9172;49.948;9.208;2023-09-30T09:15:20;10.50;;;3.87;;
18090;SDS011;9172;49.948;9.208;2023-09-30T09:17:50;11.77;;;4.30;;
18090;SDS011;9172;49.948;9.208;2023-09-30T09:20:19;10.17;;;4.50;;
18090;SDS011;9172;49.948;9.208;2023-09-30T09:22:49;9.70;;;3.93;;
18090;SDS011;9172;49.948;9.208;2023-09-30T09:25:20;9.17;;;3.97;;
18090;SDS011;9172;49.948;9.208;2023-09-30T09:27:49;15.50;;;4.37;;
18090;SDS011;9172;49.948;9.208;2023-09-30T09:30:20;8.77;;;3.70;;
18090;SDS011;9172;49.948;9.208;2023-09-30T09:33:00;6.50;;;3.17;;
18090;SDS011;9172;49.948;9.208;2023-09-30T09:35:29;18.03;;;4.80;;
18090;SDS011;9172;49.948;9.208;2023-09-30T09:38:00;7.13;;;3.03;;
18090;SDS011;9172;49.948;9.208;2023-09-30T09:40:30;7.67;;;3.23;;
18090;SDS011;9172;49.948;9.208;2023-09-30T09:43:00;8.00;;;3.10;;
18090;SDS011;9172;49.948;9.208;2023-09-30T09:45:32;8.57;;;3.30;;
18090;SDS011;9172;49.948;9.208;2023-09-30T09:48:02;8.17;;;3.70;;
18090;SDS011;9172;49.948;9.208;2023-09-30T09:50:33;7.50;;;3.33;;
18090;SDS011;9172;49.948;9.208;2023-09-30T09:53:03;8.47;;;3.47;;
18090;SDS011;9172;49.948;9.208;2023-09-30T09:55:32;9.23;;;3.47;;
18090;SDS011;9172;49.948;9.208;2023-09-30T09:58:05;7.37;;;3.80;;
18090;SDS011;9172;49.948;9.208;2023-09-30T10:00:37;7.77;;;3.83;;
18090;SDS011;9172;49.948;9.208;2023-09-30T10:03:07;9.63;;;3.50;;
18090;SDS011;9172;49.948;9.208;2023-09-30T10:05:36;6.60;;;3.43;;
18090;SDS011;9172;49.948;9.208;2023-09-30T10:08:08;9.33;;;3.37;;
18090;SDS011;9172;49.948;9.208;2023-09-30T10:10:40;8.67;;;3.70;;
18090;SDS011;9172;49.948;9.208;2023-09-30T10:13:09;9.83;;;3.77;;
18090;SDS011;9172;49.948;9.208;2023-09-30T10:15:58;5.80;;;3.00;;
18090;SDS011;9172;49.948;9.208;2023-09-30T10:18:26;13.80;;;3.70;;
18090;SDS011;9172;49.948;9.208;2023-09-30T10:20:55;9.90;;;3.57;;
18090;SDS011;9172;49.948;9.208;2023-09-30T10:23:27;7.30;;;2.97;;
18090;SDS011;9172;49.948;9.208;2023-09-30T10:26:14;4.90;;;2.70;;
18090;SDS011;9172;49.948;9.208;2023-09-30T10:28:44;8.10;;;3.20;;
18090;SDS011;9172;49.948;9.208;2023-09-30T10:31:15;8.57;;;3.27;;
18090;SDS011;9172;49.948;9.208;2023-09-30T10:36:48;8.60;;;3.00;;
18090;SDS011;9172;49.948;9.208;2023-09-30T10:42:44;6.37;;;3.20;;
18090;SDS011;9172;49.948;9.208;2023-09-30T10:48:35;7.93;;;3.50;;
18090;SDS011;9172;49.948;9.208;2023-09-30T10:51:14;7.60;;;3.27;;
18090;SDS011;9172;49.948;9.208;2023-09-30T10:53:47;9.93;;;3.47;;
18090;SDS011;9172;49.948;9.208;2023-09-30T10:56:18;7.30;;;2.97;;
18090;SDS011;9172;49.948;9.208;2023-09-30T10:58:48;6.53;;;3.23;;
18090;SDS011;9172;49.948;9.208;2023-09-30T11:01:18;10.63;;;3.30;;
18090;SDS011;9172;49.948;9.208;2023-09-30T11:03:48;10.73;;;2.83;;
18090;SDS011;9172;49.948;9.208;2023-09-30T11:06:19;6.93;;;2.77;;
18090;SDS011;9172;49.948;9.208;2023-09-30T11:08:51;6.43;;;2.33;;
18090;SDS011;9172;49.948;9.208;2023-09-30T11:11:32;9.43;;;3.17;;
18090;SDS011;9172;49.948;9.208;2023-09-30T11:14:02;9.03;;;3.30;;
18090;SDS011;9172;49.948;9.208;2023-09-30T11:16:40;8.47;;;2.70;;
18090;SDS011;9172;49.948;9.208;2023-09-30T11:19:11;7.00;;;3.10;;
18090;SDS011;9172;49.948;9.208;2023-09-30T11:21:41;10.30;;;3.30;;
18090;SDS011;9172;49.948;9.208;2023-09-30T11:24:11;8.27;;;2.97;;
18090;SDS011;9172;49.948;9.208;2023-09-30T11:26:40;7.37;;;2.47;;
18090;SDS011;9172;49.948;9.208;2023-09-30T11:29:09;9.87;;;2.83;;
18090;SDS011;9172;49.948;9.208;2023-09-30T11:31:40;7.80;;;3.23;;
18090;SDS011;9172;49.948;9.208;2023-09-30T11:34:10;7.53;;;3.20;;
18090;SDS011;9172;49.948;9.208;2023-09-30T11:36:39;5.67;;;2.50;;
18090;SDS011;9172;49.948;9.208;2023-09-30T11:39:09;6.60;;;3.10;;
18090;SDS011;9172;49.948;9.208;2023-09-30T11:41:39;8.60;;;2.80;;
18090;SDS011;9172;49.948;9.208;2023-09-30T11:44:10;8.33;;;3.07;;
18090;SDS011;9172;49.948;9.208;2023-09-30T11:46:47;5.80;;;2.60;;
18090;SDS011;9172;49.948;9.208;2023-09-30T11:49:25;7.67;;;2.50;;
18090;SDS011;9172;49.948;9.208;2023-09-30T11:51:55;7.17;;;2.40;;
18090;SDS011;9172;49.948;9.208;2023-09-30T11:54:29;6.83;;;2.70;;
18090;SDS011;9172;49.948;9.208;2023-09-30T11:56:59;7.47;;;2.90;;
18090;SDS011;9172;49.948;9.208;2023-09-30T11:59:28;8.40;;;3.03;;
18090;SDS011;9172;49.948;9.208;2023-09-30T12:01:56;8.10;;;3.10;;
18090;SDS011;9172;49.948;9.208;2023-09-30T12:04:25;7.93;;;3.33;;
18090;SDS011;9172;49.948;9.208;2023-09-30T12:06:54;7.40;;;2.57;;
18090;SDS011;9172;49.948;9.208;2023-09-30T12:09:23;7.03;;;2.53;;
18090;SDS011;9172;49.948;9.208;2023-09-30T12:11:53;8.20;;;3.20;;
18090;SDS011;9172;49.948;9.208;2023-09-30T12:14:24;8.00;;;2.90;;
18090;SDS011;9172;49.948;9.208;2023-09-30T12:16:52;10.47;;;3.73;;
18090;SDS011;9172;49.948;9.208;2023-09-30T12:19:21;5.10;;;2.47;;
18090;SDS011;9172;49.948;9.208;2023-09-30T12:21:51;9.03;;;3.00;;
18090;SDS011;9172;49.948;9.208;2023-09-30T12:24:20;6.07;;;2.87;;
18090;SDS011;9172;49.948;9.208;2023-09-30T12:26:50;8.33;;;3.43;;
18090;SDS011;9172;49.948;9.208;2023-09-30T12:29:19;8.93;;;2.77;;
18090;SDS011;9172;49.948;9.208;2023-09-30T12:31:49;5.73;;;2.80;;
18090;SDS011;9172;49.948;9.208;2023-09-30T12:34:18;11.90;;;3.47;;
18090;SDS011;9172;49.948;9.208;2023-09-30T12:36:49;8.30;;;2.43;;
18090;SDS011;9172;49.948;9.208;2023-09-30T12:39:17;8.40;;;2.73;;
18090;SDS011;9172;49.948;9.208;2023-09-30T12:41:48;8.33;;;3.07;;
18090;SDS011;9172;49.948;9.208;2023-09-30T12:44:17;8.90;;;2.93;;
18090;SDS011;9172;49.948;9.208;2023-09-30T12:46:45;9.33;;;2.97;;
18090;SDS011;9172;49.948;9.208;2023-09-30T12:49:14;6.07;;;3.07;;
18090;SDS011;9172;49.948;9.208;2023-09-30T12:51:42;7.40;;;2.87;;
18090;SDS011;9172;49.948;9.208;2023-09-30T12:54:11;6.33;;;2.83;;
18090;SDS011;9172;49.948;9.208;2023-09-30T12:56:40;10.03;;;3.10;;
18090;SDS011;9172;49.948;9.208;2023-09-30T12:59:09;8.27;;;3.10;;
18090;SDS011;9172;49.948;9.208;2023-09-30T13:01:38;7.27;;;3.30;;
18090;SDS011;9172;49.948;9.208;2023-09-30T13:04:06;7.73;;;2.97;;
18090;SDS011;9172;49.948;9.208;2023-09-30T13:06:35;10.20;;;3.40;;
18090;SDS011;9172;49.948;9.208;2023-09-30T13:09:04;6.87;;;2.80;;
18090;SDS011;9172;49.948;9.208;2023-09-30T13:11:34;8.27;;;2.60;;
18090;SDS011;9172;49.948;9.208;2023-09-30T13:14:02;8.23;;;3.20;;
18090;SDS011;9172;49.948;9.208;2023-09-30T13:16:31;6.57;;;2.67;;
18090;SDS011;9172;49.948;9.208;2023-09-30T13:19:00;7.93;;;2.83;;
18090;SDS011;9172;49.948;9.208;2023-09-30T13:21:28;8.70;;;2.87;;
18090;SDS011;9172;49.948;9.208;2023-09-30T13:23:57;8.13;;;2.90;;
18090;SDS011;9172;49.948;9.208;2023-09-30T13:26:26;8.63;;;3.60;;
18090;SDS011;9172;49.948;9.208;2023-09-30T13:28:54;9.10;;;3.30;;
18090;SDS011;9172;49.948;9.208;2023-09-30T13:31:23;10.83;;;2.97;;
18090;SDS011;9172;49.948;9.208;2023-09-30T13:33:52;13.20;;;3.40;;
18090;SDS011;9172;49.948;9.208;2023-09-30T13:36:20;10.50;;;2.73;;
18090;SDS011;9172;49.948;9.208;2023-09-30T13:38:49;7.73;;;2.60;;
18090;SDS011;9172;49.948;9.208;2023-09-30T13:41:18;9.37;;;2.90;;
18090;SDS011;9172;49.948;9.208;2023-09-30T13:43:46;6.57;;;3.10;;
18090;SDS011;9172;49.948;9.208;2023-09-30T13:46:15;9.73;;;3.50;;
18090;SDS011;9172;49.948;9.208;2023-09-30T13:48:43;8.63;;;2.77;;
18090;SDS011;9172;49.948;9.208;2023-09-30T13:51:13;6.93;;;2.83;;
18090;SDS011;9172;49.948;9.208;2023-09-30T13:53:42;7.60;;;2.77;;
18090;SDS011;9172;49.948;9.208;2023-09-30T13:56:10;8.13;;;3.00;;
18090;SDS011;9172;49.948;9.208;2023-09-30T13:58:39;6.27;;;2.80;;
18090;SDS011;9172;49.948;9.208;2023-09-30T14:01:08;5.53;;;2.30;;
18090;SDS011;9172;49.948;9.208;2023-09-30T14:03:38;6.87;;;2.43;;
18090;SDS011;9172;49.948;9.208;2023-09-30T14:06:09;7.97;;;2.43;;
18090;SDS011;9172;49.948;9.208;2023-09-30T14:08:38;5.90;;;2.10;;
18090;SDS011;9172;49.948;9.208;2023-09-30T14:11:08;10.30;;;3.30;;
18090;SDS011;9172;49.948;9.208;2023-09-30T14:13:37;5.27;;;2.23;;
18090;SDS011;9172;49.948;9.208;2023-09-30T14:16:06;7.60;;;2.60;;
18090;SDS011;9172;49.948;9.208;2023-09-30T14:18:35;8.60;;;3.27;;
18090;SDS011;9172;49.948;9.208;2023-09-30T14:21:05;5.07;;;2.20;;
18090;SDS011;9172;49.948;9.208;2023-09-30T14:23:34;6.90;;;2.57;;
18090;SDS011;9172;49.948;9.208;2023-09-30T14:26:02;6.70;;;2.60;;
18090;SDS011;9172;49.948;9.208;2023-09-30T14:28:32;5.67;;;2.57;;
18090;SDS011;9172;49.948;9.208;2023-09-30T14:31:03;7.40;;;2.40;;
18090;SDS011;9172;49.948;9.208;2023-09-30T14:33:31;4.90;;;2.07;;
18090;SDS011;9172;49.948;9.208;2023-09-30T14:36:00;6.40;;;2.53;;
18090;SDS011;9172;49.948;9.208;2023-09-30T14:38:31;9.57;;;2.70;;
18090;SDS011;9172;49.948;9.208;2023-09-30T14:41:01;7.30;;;3.27;;
18090;SDS011;9172;49.948;9.208;2023-09-30T14:43:31;6.37;;;2.20;;
18090;SDS011;9172;49.948;9.208;2023-09-30T14:46:01;5.97;;;2.50;;
18090;SDS011;9172;49.948;9.208;2023-09-30T14:48:29;3.67;;;2.33;;
18090;SDS011;9172;49.948;9.208;2023-09-30T14:50:58;12.00;;;2.80;;
18090;SDS011;9172;49.948;9.208;2023-09-30T14:53:27;7.70;;;2.23;;
18090;SDS011;9172;49.948;9.208;2023-09-30T14:55:55;5.40;;;2.50;;
18090;SDS011;9172;49.948;9.208;2023-09-30T14:58:24;4.70;;;2.23;;
18090;SDS011;9172;49.948;9.208;2023-09-30T15:00:52;6.00;;;2.37;;
18090;SDS011;9172;49.948;9.208;2023-09-30T15:03:21;9.97;;;2.90;;
18090;SDS011;9172;49.948;9.208;2023-09-30T15:05:57;4.20;;;2.13;;
18090;SDS011;9172;49.948;9.208;2023-09-30T15:08:27;7.23;;;2.70;;
18090;SDS011;9172;49.948;9.208;2023-09-30T15:10:57;4.80;;;2.50;;
18090;SDS011;9172;49.948;9.208;2023-09-30T15:13:26;6.27;;;2.20;;
18090;SDS011;9172;49.948;9.208;2023-09-30T15:15:55;9.33;;;2.30;;
18090;SDS011;9172;49.948;9.208;2023-09-30T15:18:24;6.37;;;2.10;;
18090;SDS011;9172;49.948;9.208;2023-09-30T15:20:52;8.00;;;2.40;;
18090;SDS011;9172;49.948;9.208;2023-09-30T15:23:21;4.97;;;2.30;;
18090;SDS011;9172;49.948;9.208;2023-09-30T15:25:49;4.43;;;2.07;;